Time;durP1;ratioP1;P1;durP2;ratioP2;P2;SDS_P1;SDS_P2;PMS_P1;PMS_P2;Temp;Humidity;BMP_temperature;BMP_pressure;BME280_temperature;BME280_humidity;BME280_pressure;Samples;Min_cycle;Max_cycle;Signal;HPM_P1;HPM_P2
2022/10/02 00:00:17;;;;;;;2.83;0.80;;;;;;;-145.06;100.00;60892.56;5852185;23;20035;-89
2022/10/02 00:03:14;;;;;;;2.63;0.82;;;;;;;-145.06;100.00;60892.56;5861883;23;20010;-89
2022/10/02 00:06:03;;;;;;;3.45;0.88;;;;;;;-145.06;100.00;60892.56;5849855;23;20011;-89
2022/10/02 00:08:44;;;;;;;3.67;0.90;;;;;;;-145.06;100.00;60892.56;5851750;23;20007;-89
2022/10/02 00:11:30;;;;;;;4.95;1.10;;;;;;;-145.06;100.00;60892.56;5851291;23;20035;-90
2022/10/02 00:14:16;;;;;;;4.43;0.90;;;;;;;-145.06;100.00;60892.56;5850903;23;20002;-90
2022/10/02 00:16:59;;;;;;;2.95;0.90;;;;;;;-145.06;100.00;60892.56;5850744;23;20089;-90
2022/10/02 00:19:37;;;;;;;3.17;0.65;;;;;;;-145.06;100.00;60892.56;5851689;23;20007;-90
2022/10/02 00:22:43;;;;;;;7.13;1.50;;;;;;;-145.06;100.00;60892.56;5850841;23;20094;-89
2022/10/02 00:25:28;;;;;;;2.90;0.52;;;;;;;-145.06;100.00;60892.56;5850056;23;20010;-91
2022/10/02 00:28:23;;;;;;;4.00;0.95;;;;;;;-145.06;100.00;60892.56;5851337;23;20007;-90
2022/10/02 00:31:23;;;;;;;2.90;0.93;;;;;;;-145.06;100.00;60892.56;5851748;23;20140;-89
2022/10/02 00:34:30;;;;;;;2.92;1.00;;;;;;;-145.06;100.00;60892.56;5851433;23;20085;-90
2022/10/02 00:37:25;;;;;;;4.82;1.35;;;;;;;-145.06;100.00;60892.56;5850399;23;20277;-88
2022/10/02 00:40:19;;;;;;;3.03;0.80;;;;;;;-145.06;100.00;60892.56;5851915;23;20011;-89
2022/10/02 00:43:26;;;;;;;3.15;0.80;;;;;;;15.56;100.00;60892.56;5850302;23;20355;-90
2022/10/02 00:46:05;;;;;;;1.95;0.77;;;;;;;15.58;100.00;60892.56;5850333;23;20400;-89
2022/10/02 00:48:58;;;;;;;4.33;0.90;;;;;;;15.60;100.00;60892.56;5851531;23;20198;-91
2022/10/02 00:51:58;;;;;;;2.92;0.93;;;;;;;-145.06;100.00;60892.56;5849272;23;20314;-89
2022/10/02 00:55:20;;;;;;;4.88;1.15;;;;;;;15.64;100.00;60892.56;5850910;23;20062;-91
2022/10/02 00:58:26;;;;;;;1.58;0.50;;;;;;;15.65;100.00;60892.56;5850729;23;20007;-89
2022/10/02 01:01:12;;;;;;;5.10;0.90;;;;;;;-145.06;100.00;60892.56;5850462;23;20010;-90
2022/10/02 01:03:55;;;;;;;1.73;0.55;;;;;;;-145.06;100.00;60892.56;5852193;23;20010;-90
2022/10/02 01:06:34;;;;;;;2.28;0.80;;;;;;;15.74;100.00;60892.56;5849636;23;20010;-90
2022/10/02 01:09:14;;;;;;;2.47;0.70;;;;;;;-145.06;100.00;60892.56;5851867;23;20007;-89
2022/10/02 01:11:53;;;;;;;3.08;0.95;;;;;;;15.68;100.00;60892.56;5850451;23;20045;-90
2022/10/02 01:14:38;;;;;;;2.53;0.85;;;;;;;15.68;100.00;60892.56;5851630;23;20015;-90
2022/10/02 01:17:23;;;;;;;2.60;0.70;;;;;;;15.69;100.00;60892.56;5850263;23;20003;-89
2022/10/02 01:20:05;;;;;;;4.22;1.17;;;;;;;-145.06;100.00;60892.56;5860856;23;20062;-89
2022/10/02 01:23:00;;;;;;;3.15;0.70;;;;;;;-145.06;100.00;60892.56;5850679;23;20035;-92
2022/10/02 01:25:39;;;;;;;2.38;0.70;;;;;;;15.74;100.00;60892.56;5851116;23;20003;-90
2022/10/02 01:28:20;;;;;;;1.42;0.60;;;;;;;-145.06;100.00;60892.56;5849887;23;20011;-89
2022/10/02 01:31:12;;;;;;;;;;;;;;;-145.06;100.00;60892.56;5850108;23;20010;-91
2022/10/02 01:33:51;;;;;;;1.75;0.50;;;;;;;-145.06;100.00;60892.56;5851085;23;20214;-89
2022/10/02 01:36:30;;;;;;;6.22;1.20;;;;;;;15.71;100.00;60892.56;5849856;23;20011;-90
2022/10/02 01:39:10;;;;;;;3.40;1.10;;;;;;;15.74;100.00;60892.56;5850628;23;20085;-90
2022/10/02 01:41:49;;;;;;;2.38;0.70;;;;;;;15.71;100.00;60892.56;5850736;23;20046;-90
2022/10/02 01:44:29;;;;;;;1.97;0.90;;;;;;;-145.06;100.00;60892.56;5861771;23;20085;-89
2022/10/02 01:47:09;;;;;;;;;;;;;;;-145.06;100.00;60892.56;5849939;23;20011;-90
2022/10/02 01:50:04;;;;;;;2.60;0.70;;;;;;;-145.06;100.00;60892.56;5850119;23;19906;-90
2022/10/02 01:53:02;;;;;;;3.13;0.73;;;;;;;-145.06;100.00;60892.56;5850313;23;20078;-91
2022/10/02 01:55:56;;;;;;;1.40;0.50;;;;;;;15.70;100.00;60892.56;5850510;23;20450;-90
2022/10/02 01:59:03;;;;;;;2.05;0.60;;;;;;;15.68;100.00;60892.56;5851099;23;20011;-91
2022/10/02 02:01:53;;;;;;;2.22;0.70;;;;;;;15.68;100.00;60892.56;5850339;23;20007;-90
2022/10/02 02:04:44;;;;;;;2.88;0.90;;;;;;;15.88;100.00;60892.56;5860641;23;20010;-91
2022/10/02 02:07:48;;;;;;;3.17;0.85;;;;;;;15.69;100.00;60892.56;5850355;23;20308;-89
2022/10/02 02:10:33;;;;;;;3.08;1.00;;;;;;;15.68;100.00;60892.56;5850844;23;20006;-90
2022/10/02 02:13:15;;;;;;;2.25;0.70;;;;;;;15.68;100.00;60892.56;5850148;23;20086;-91
2022/10/02 02:16:21;;;;;;;2.92;0.68;;;;;;;15.69;100.00;60892.56;5850465;23;20018;-89
2022/10/02 02:19:15;;;;;;;3.17;0.90;;;;;;;15.70;100.00;60892.56;5850664;23;20010;-90
2022/10/02 02:22:07;;;;;;;2.30;0.77;;;;;;;15.71;100.00;60892.56;5863125;23;20106;-89
2022/10/02 02:25:08;;;;;;;2.80;0.80;;;;;;;15.70;100.00;60892.56;5851340;23;20006;-90
2022/10/02 02:27:52;;;;;;;2.38;0.70;;;;;;;15.80;100.00;60892.56;5852088;23;20003;-89
2022/10/02 02:30:34;;;;;;;1.92;0.75;;;;;;;-145.06;100.00;60892.56;5854691;23;20006;-89
2022/10/02 02:33:30;;;;;;;2.30;0.63;;;;;;;-145.06;100.00;60892.56;5864563;23;20030;-91
2022/10/02 02:36:15;;;;;;;3.08;1.00;;;;;;;-145.06;100.00;60892.56;5852863;23;20058;-90
2022/10/02 02:39:00;;;;;;;1.88;0.68;;;;;;;15.88;100.00;60892.56;5853110;23;20003;-90
2022/10/02 02:41:47;;;;;;;2.28;0.63;;;;;;;15.81;100.00;60892.56;5863201;23;20007;-90
2022/10/02 02:44:33;;;;;;;1.98;0.70;;;;;;;15.80;100.00;60892.56;5852734;23;20475;-90
2022/10/02 02:47:28;;;;;;;5.53;1.40;;;;;;;15.80;100.00;80889.19;5852824;23;20011;-90
2022/10/02 02:50:28;;;;;;;3.80;1.17;;;;;;;15.80;100.00;60892.56;5853396;23;20022;-89
2022/10/02 02:53:16;;;;;;;1.95;0.60;;;;;;;-145.06;100.00;60892.56;5854117;23;20316;-90
2022/10/02 02:55:59;;;;;;;2.65;0.80;;;;;;;-145.06;100.00;60892.56;5851097;23;20397;-90
2022/10/02 02:59:03;;;;;;;4.13;1.23;;;;;;;-145.06;100.00;60892.56;5853276;23;20086;-90
2022/10/02 03:01:43;;;;;;;3.85;1.10;;;;;;;15.82;100.00;60892.56;5852969;23;20498;-90
2022/10/02 03:04:22;;;;;;;3.13;0.98;;;;;;;15.88;100.00;60892.56;5851716;23;20006;-91
2022/10/02 03:07:03;;;;;;;2.83;0.90;;;;;;;15.81;100.00;60892.56;5851511;23;20010;-90
2022/10/02 03:09:53;;;;;;;4.72;1.17;;;;;;;15.80;100.00;60892.56;5864889;23;20007;-91
2022/10/02 03:12:35;;;;;;;3.63;1.00;;;;;;;15.79;100.00;60892.56;5852171;23;20015;-91
2022/10/02 03:15:26;;;;;;;3.50;0.82;;;;;;;-145.06;100.00;60892.56;5852667;23;20003;-89
2022/10/02 03:18:08;;;;;;;4.63;0.80;;;;;;;-145.06;100.00;60892.56;5852674;23;20596;-91
2022/10/02 03:20:56;;;;;;;4.35;1.02;;;;;;;15.79;100.00;60892.56;5851352;23;20046;-89
2022/10/02 03:23:52;;;;;;;5.03;1.10;;;;;;;21.08;100.00;60892.56;5852788;23;20010;-88
2022/10/02 03:26:41;;;;;;;2.72;0.80;;;;;;;15.72;100.00;60892.56;5851164;23;20006;-90
2022/10/02 03:29:38;;;;;;;4.93;1.00;;;;;;;15.71;100.00;60892.56;5852390;23;20010;-90
2022/10/02 03:32:20;;;;;;;2.97;0.93;;;;;;;-145.06;100.00;60892.56;5851455;23;20446;-88
2022/10/02 03:35:00;;;;;;;5.10;1.20;;;;;;;-145.06;100.00;60892.56;5850122;23;20010;-88
2022/10/02 03:37:46;;;;;;;4.88;0.90;;;;;;;15.88;100.00;60892.56;5850415;23;20555;-89
2022/10/02 03:40:26;;;;;;;4.30;1.27;;;;;;;-145.06;100.00;60892.56;5850620;23;20006;-90
2022/10/02 03:43:06;;;;;;;2.55;0.85;;;;;;;187.52;100.00;60892.56;5850999;23;20019;-89
2022/10/02 03:45:45;;;;;;;3.60;0.90;;;;;;;15.56;100.00;60892.56;5850072;23;20018;-89
2022/10/02 03:48:24;;;;;;;4.47;0.87;;;;;;;-145.06;100.00;60892.56;5851370;23;20034;-90
2022/10/02 03:51:03;;;;;;;3.13;0.70;;;;;;;-145.06;100.00;60892.56;5850035;23;20239;-88
2022/10/02 03:53:42;;;;;;;2.70;0.77;;;;;;;21.08;100.00;60892.56;5851229;23;20014;-89
2022/10/02 03:56:57;;;;;;;2.67;0.90;;;;;;;-145.06;100.00;60892.56;5849427;23;20007;-89
2022/10/02 03:59:50;;;;;;;2.60;0.70;;;;;;;-145.06;100.00;60892.56;5775385;23;20344;-91
2022/10/02 04:03:09;;;;;;;3.60;1.10;;;;;;;-145.06;100.00;60892.56;5848997;23;20319;-88
2022/10/02 04:06:03;;;;;;;2.60;0.90;;;;;;;-145.06;100.00;60892.56;5816674;23;20010;-90
2022/10/02 04:08:52;;;;;;;1.95;0.60;;;;;;;-145.06;100.00;60892.56;5849154;23;20031;-89
2022/10/02 04:11:39;;;;;;;3.45;0.70;;;;;;;-145.06;100.00;60892.56;5849251;23;20596;-90
2022/10/02 04:14:24;;;;;;;2.03;0.55;;;;;;;-145.06;100.00;60892.56;5851888;23;20003;-90
2022/10/02 04:17:43;;;;;;;1.88;0.50;;;;;;;-145.06;100.00;60892.56;5849050;23;20006;-87
2022/10/02 04:20:46;;;;;;;1.23;0.60;;;;;;;-145.06;100.00;60892.56;5818758;23;20007;-88
2022/10/02 04:23:46;;;;;;;2.08;0.73;;;;;;;-145.06;100.00;60892.56;5849959;23;20018;-89
2022/10/02 04:26:32;;;;;;;2.97;0.85;;;;;;;-145.06;100.00;60892.56;5849219;23;20014;-89
2022/10/02 04:29:17;;;;;;;3.83;1.15;;;;;;;15.35;100.00;60892.56;5851349;23;20006;-89
2022/10/02 04:32:16;;;;;;;3.03;0.80;;;;;;;-145.06;100.00;60892.56;5850168;23;20015;-90
2022/10/02 04:34:55;;;;;;;2.47;0.73;;;;;;;-145.06;100.00;60892.56;5848905;23;20010;-88
2022/10/02 04:38:03;;;;;;;1.58;0.65;;;;;;;-145.06;100.00;60892.56;5850306;23;20011;-89
2022/10/02 04:40:54;;;;;;;1.33;0.63;;;;;;;-145.06;100.00;60892.56;5848582;23;20006;-89
2022/10/02 04:43:54;;;;;;;2.67;0.80;;;;;;;-145.06;100.00;60892.56;5851077;23;20006;-89
2022/10/02 04:47:04;;;;;;;1.55;0.75;;;;;;;-145.06;100.00;60892.56;5849339;23;19999;-88
2022/10/02 04:49:53;;;;;;;;;;;;;;;-145.06;100.00;60892.56;5850114;23;20010;-88
2022/10/02 04:52:59;;;;;;;5.32;0.80;;;;;;;-145.06;100.00;60892.56;5849790;23;19909;-88
2022/10/02 04:56:00;;;;;;;1.63;0.47;;;;;;;-145.06;100.00;60892.56;5849473;23;20014;-89
2022/10/02 04:59:04;;;;;;;2.03;0.70;;;;;;;-145.06;100.00;60892.56;5849822;23;20006;-90
2022/10/02 05:02:09;;;;;;;2.83;0.75;;;;;;;-145.06;100.00;60892.56;5848767;23;20109;-89
2022/10/02 05:04:54;;;;;;;1.65;0.60;;;;;;;-145.06;100.00;60892.56;5848966;23;20010;-89
2022/10/02 05:08:02;;;;;;;1.13;0.40;;;;;;;-145.06;100.00;60892.56;5849884;23;20082;-89
2022/10/02 05:10:59;;;;;;;1.88;0.50;;;;;;;-145.06;100.00;60892.56;5786817;23;20019;-88
2022/10/02 05:14:06;;;;;;;3.08;0.98;;;;;;;-145.06;100.00;60892.56;5852138;23;20307;-90
2022/10/02 05:17:09;;;;;;;1.92;0.70;;;;;;;-145.06;100.00;60892.56;5850856;23;20030;-92
2022/10/02 05:19:56;;;;;;;4.47;1.23;;;;;;;-145.06;100.00;60892.56;5849390;23;20010;-89
2022/10/02 05:22:41;;;;;;;2.03;0.63;;;;;;;-145.06;100.00;60892.56;5858671;23;20015;-90
2022/10/02 05:25:39;;;;;;;2.47;0.68;;;;;;;-145.06;100.00;60892.56;5849393;23;20011;-90
2022/10/02 05:28:33;;;;;;;3.00;0.73;;;;;;;-145.06;100.00;60892.56;5861103;23;20003;-90
2022/10/02 05:31:30;;;;;;;1.77;0.70;;;;;;;-145.06;100.00;60892.56;5849708;23;20007;-90
2022/10/02 05:34:31;;;;;;;1.42;0.57;;;;;;;-145.06;100.00;60892.56;5848984;23;20074;-90
2022/10/02 05:37:41;;;;;;;1.88;0.50;;;;;;;-145.06;100.00;60892.56;5858907;23;20323;-89
2022/10/02 05:40:28;;;;;;;2.42;0.52;;;;;;;-145.06;100.00;60892.56;5858958;23;20235;-90
2022/10/02 05:43:20;;;;;;;2.05;0.80;;;;;;;-145.06;100.00;60892.56;5848913;23;20010;-90
2022/10/02 05:46:09;;;;;;;1.48;0.50;;;;;;;-145.06;100.00;60892.56;5849177;23;20446;-91
2022/10/02 05:48:56;;;;;;;3.63;0.88;;;;;;;-145.06;100.00;60892.56;5849010;23;20015;-89
2022/10/02 05:51:58;;;;;;;2.58;0.50;;;;;;;-145.06;100.00;60892.56;5848654;23;20018;-89
2022/10/02 05:54:56;;;;;;;0.75;0.40;;;;;;;-145.06;100.00;60892.56;5849617;23;20010;-89
2022/10/02 05:57:44;;;;;;;1.38;0.63;;;;;;;-145.06;100.00;60892.56;5850007;23;20007;-90
2022/10/02 06:00:30;;;;;;;2.20;0.50;;;;;;;-145.06;100.00;60892.56;5850720;23;20015;-90
2022/10/02 06:03:24;;;;;;;1.42;0.50;;;;;;;-145.06;100.00;60892.56;5848045;23;20034;-89
2022/10/02 06:06:15;;;;;;;1.85;0.40;;;;;;;-145.06;100.00;60892.56;5848604;23;20323;-90
2022/10/02 06:09:08;;;;;;;2.83;0.85;;;;;;;-145.06;100.00;60892.56;5848802;23;20208;-89
2022/10/02 06:12:19;;;;;;;1.52;0.50;;;;;;;-145.06;100.00;60892.56;5849362;23;20007;-89
2022/10/02 06:15:05;;;;;;;0.95;0.55;;;;;;;-145.06;100.00;60892.56;5851546;23;20003;-90
2022/10/02 06:17:58;;;;;;;1.88;0.52;;;;;;;-145.06;100.00;60892.56;5848693;23;20011;-89
2022/10/02 06:20:47;;;;;;;2.80;0.60;;;;;;;-145.06;100.00;60892.56;5849337;23;20082;-89
2022/10/02 06:23:41;;;;;;;1.95;0.70;;;;;;;15.03;100.00;60892.56;5850085;23;20002;-90
2022/10/02 06:26:38;;;;;;;1.77;0.50;;;;;;;-145.06;100.00;60892.56;5849770;23;20577;-90
2022/10/02 06:29:30;;;;;;;0.22;0.20;;;;;;;-145.06;100.00;60892.56;5850371;23;20003;-89
2022/10/02 06:32:17;;;;;;;2.28;0.60;;;;;;;-145.06;100.00;60892.56;5859685;23;20007;-90
2022/10/02 06:34:56;;;;;;;1.17;0.55;;;;;;;-145.06;100.00;60892.56;5850309;23;20011;-90
2022/10/02 06:37:49;;;;;;;1.58;0.63;;;;;;;-145.06;100.00;60892.56;5847914;23;20011;-91
2022/10/02 06:41:00;;;;;;;1.23;0.40;;;;;;;-145.06;100.00;60892.56;5849085;23;20011;-90
2022/10/02 06:44:11;;;;;;;0.70;0.50;;;;;;;-145.06;100.00;60892.56;5848359;23;20007;-90
2022/10/02 06:47:13;;;;;;;1.55;0.63;;;;;;;-145.06;100.00;60892.56;5848785;23;20007;-90
2022/10/02 06:50:20;;;;;;;1.55;0.50;;;;;;;-145.06;100.00;60892.56;5849479;23;20006;-90
2022/10/02 06:53:29;;;;;;;0.95;0.38;;;;;;;-145.06;100.00;60892.56;5848236;23;20007;-90
2022/10/02 06:56:30;;;;;;;1.38;0.60;;;;;;;-145.06;100.00;60892.56;5849268;23;20007;-90
2022/10/02 06:59:18;;;;;;;0.98;0.50;;;;;;;-145.06;100.00;60892.56;5860402;23;20003;-89
2022/10/02 07:02:19;;;;;;;0.85;0.40;;;;;;;-145.06;100.00;60892.56;5849035;23;20003;-90
2022/10/02 07:05:13;;;;;;;1.30;0.30;;;;;;;-145.06;100.00;60892.56;5849867;23;20007;-89
2022/10/02 07:08:43;;;;;;;1.00;0.40;;;;;;;-145.06;100.00;60892.56;5848307;23;20007;-90
2022/10/02 07:11:52;;;;;;;0.57;0.40;;;;;;;-145.06;100.00;60892.56;5824897;23;20077;-89
2022/10/02 07:15:03;;;;;;;1.50;0.40;;;;;;;-145.06;100.00;60892.56;5852010;23;20034;-89
2022/10/02 07:17:57;;;;;;;0.52;0.20;;;;;;;14.89;100.00;60892.56;5849707;23;20311;-90
2022/10/02 07:21:17;;;;;;;0.50;0.20;;;;;;;-145.06;100.00;60892.56;5850973;23;20324;-89
2022/10/02 07:24:15;;;;;;;1.08;0.40;;;;;;;-145.06;100.00;60892.56;5791370;23;20011;-89
2022/10/02 07:26:57;;;;;;;1.52;0.50;;;;;;;-145.06;100.00;60892.56;5849920;23;20011;-91
2022/10/02 07:29:47;;;;;;;0.68;0.40;;;;;;;14.82;100.00;60892.56;5851070;23;20078;-90
2022/10/02 07:32:29;;;;;;;0.57;0.30;;;;;;;-145.06;100.00;60892.56;5849137;23;20011;-90
2022/10/02 07:35:28;;;;;;;0.32;0.32;;;;;;;-145.06;100.00;60892.56;5850747;23;20773;-90
2022/10/02 07:38:41;;;;;;;0.98;0.40;;;;;;;-145.06;100.00;60892.56;5850209;23;20426;-91
2022/10/02 07:41:48;;;;;;;1.20;0.50;;;;;;;-145.06;100.00;60892.56;5850236;23;20011;-90
2022/10/02 07:45:10;;;;;;;1.45;0.50;;;;;;;-145.06;100.00;60892.56;5851509;23;20007;-90
2022/10/02 07:48:14;;;;;;;0.50;0.40;;;;;;;-145.06;100.00;60892.56;5850814;23;20031;-89
2022/10/02 07:51:05;;;;;;;1.45;0.50;;;;;;;-145.06;100.00;60892.56;5850257;23;20007;-90
2022/10/02 07:53:50;;;;;;;1.10;0.40;;;;;;;14.82;100.00;60892.56;5849975;23;20007;-88
2022/10/02 07:56:29;;;;;;;1.15;0.40;;;;;;;-145.06;100.00;60892.56;5848789;23;20434;-90
2022/10/02 07:59:15;;;;;;;0.65;0.45;;;;;;;-145.06;100.00;60892.56;5861316;23;20002;-90
2022/10/02 08:01:54;;;;;;;0.80;0.30;;;;;;;-145.06;100.00;60892.56;5861914;23;20014;-89
2022/10/02 08:04:36;;;;;;;0.88;0.40;;;;;;;-145.06;100.00;60892.56;5850915;23;20404;-89
2022/10/02 08:07:15;;;;;;;0.50;0.40;;;;;;;-145.06;100.00;60892.56;5847383;23;20042;-89
2022/10/02 08:10:00;;;;;;;0.55;0.40;;;;;;;14.86;100.00;60892.56;5851589;23;20007;-90
2022/10/02 08:12:49;;;;;;;0.95;0.45;;;;;;;15.88;100.00;60892.56;5849491;23;20110;-89
2022/10/02 08:15:34;;;;;;;1.02;0.45;;;;;;;-145.06;100.00;60892.56;5850495;23;20006;-89
2022/10/02 08:18:20;;;;;;;0.38;0.30;;;;;;;14.88;100.00;60892.56;5851085;23;20002;-90
2022/10/02 08:21:00;;;;;;;0.85;0.32;;;;;;;-145.06;100.00;60892.56;5851197;23;20030;-89
2022/10/02 08:23:57;;;;;;;0.65;0.20;;;;;;;-145.06;100.00;60892.56;5850788;23;20007;-89
2022/10/02 08:26:45;;;;;;;0.65;0.40;;;;;;;-145.06;100.00;60892.56;5850506;23;20030;-90
2022/10/02 08:29:30;;;;;;;0.47;0.40;;;;;;;-145.06;100.00;60892.56;5852004;23;20023;-90
2022/10/02 08:32:13;;;;;;;0.95;0.30;;;;;;;-145.06;100.00;60892.56;5848370;23;20010;-89
2022/10/02 08:34:52;;;;;;;0.80;0.32;;;;;;;-145.06;100.00;60892.56;5850512;23;20025;-89
2022/10/02 08:37:49;;;;;;;0.77;0.30;;;;;;;-145.06;100.00;60892.56;5849942;23;20086;-89
2022/10/02 08:40:50;;;;;;;0.20;0.20;;;;;;;-145.06;100.00;60892.56;5849849;23;20243;-90
2022/10/02 08:43:57;;;;;;;1.63;0.43;;;;;;;-145.06;100.00;60892.56;5850968;23;20003;-90
2022/10/02 08:47:01;;;;;;;0.40;0.30;;;;;;;-145.06;100.00;60892.56;5849012;23;20011;-89
2022/10/02 08:50:02;;;;;;;1.58;0.32;;;;;;;-145.06;100.00;60892.56;5851577;23;20015;-88
2022/10/02 08:53:15;;;;;;;0.25;0.25;;;;;;;-145.06;100.00;60892.56;5849669;23;20007;-89
2022/10/02 08:56:04;;;;;;;0.90;0.40;;;;;;;-145.06;100.00;60892.56;5848798;23;20018;-90
2022/10/02 08:59:27;;;;;;;0.30;0.30;;;;;;;-145.06;100.00;60892.56;5850488;23;20466;-89
2022/10/02 09:02:40;;;;;;;1.58;0.35;;;;;;;-145.06;100.00;60892.56;5849776;23;20006;-90
2022/10/02 09:05:52;;;;;;;0.80;0.30;;;;;;;-145.06;100.00;60892.56;5850213;23;20003;-90
2022/10/02 09:08:43;;;;;;;0.63;0.30;;;;;;;-145.06;100.00;60892.56;5850545;23;20003;-89
2022/10/02 09:11:57;;;;;;;1.45;0.40;;;;;;;-145.06;100.00;60892.56;5850891;23;20006;-89
2022/10/02 09:15:05;;;;;;;0.65;0.35;;;;;;;-145.06;100.00;60892.56;5849731;23;20006;-90
2022/10/02 09:18:15;;;;;;;0.65;0.50;;;;;;;-145.06;100.00;60892.56;5849819;23;20007;-89
2022/10/02 09:21:13;;;;;;;1.10;0.40;;;;;;;-145.06;100.00;60892.56;5849822;23;20450;-90
2022/10/02 09:24:21;;;;;;;1.30;0.40;;;;;;;-145.06;100.00;60892.56;5850014;23;20438;-89
2022/10/02 09:27:06;;;;;;;1.20;0.40;;;;;;;-145.06;100.00;60892.56;5784978;23;20426;-89
2022/10/02 09:30:29;;;;;;;2.65;0.50;;;;;;;-145.06;100.00;60892.56;5850159;23;20667;-89
2022/10/02 09:33:22;;;;;;;1.00;0.50;;;;;;;-145.06;100.00;60892.56;5774272;23;20008;-90
2022/10/02 09:36:00;;;;;;;1.65;0.40;;;;;;;-145.06;100.00;60892.56;5791925;23;20435;-89
2022/10/02 09:39:11;;;;;;;1.10;0.60;;;;;;;-145.06;100.00;60892.56;5861893;23;20011;-89
2022/10/02 09:42:08;;;;;;;1.25;0.45;;;;;;;-145.06;100.00;60892.56;5860796;23;20235;-90
2022/10/02 09:45:12;;;;;;;1.23;0.47;;;;;;;-145.06;100.00;60892.56;5850344;23;20010;-90
2022/10/02 09:48:29;;;;;;;0.80;0.40;;;;;;;-145.06;100.00;60892.56;5849401;23;20011;-90
2022/10/02 09:51:41;;;;;;;1.58;0.50;;;;;;;-145.06;100.00;60892.56;5849579;23;20002;-90
2022/10/02 09:54:51;;;;;;;1.40;0.40;;;;;;;-145.06;100.00;60892.56;5850537;23;20193;-90
2022/10/02 09:58:04;;;;;;;2.10;0.52;;;;;;;-145.06;100.00;60892.56;5849810;23;19999;-89
2022/10/02 10:01:10;;;;;;;0.95;0.40;;;;;;;-145.06;100.00;60892.56;5850425;23;20006;-89
2022/10/02 10:04:07;;;;;;;1.23;0.50;;;;;;;-145.06;100.00;60892.56;5849442;23;20363;-90
2022/10/02 10:07:08;;;;;;;1.50;0.55;;;;;;;-145.06;100.00;60892.56;5848440;23;20006;-90
2022/10/02 10:10:06;;;;;;;0.70;0.40;;;;;;;-145.06;100.00;60892.56;5848807;23;20006;-89
2022/10/02 10:13:00;;;;;;;0.75;0.38;;;;;;;-145.06;100.00;60892.56;5858992;23;20011;-90
2022/10/02 10:16:01;;;;;;;1.20;0.47;;;;;;;-145.06;100.00;60892.56;5848509;23;20163;-91
2022/10/02 10:19:12;;;;;;;0.70;0.50;;;;;;;-145.06;100.00;60892.56;5848631;23;20007;-91
2022/10/02 10:22:13;;;;;;;1.48;0.50;;;;;;;-145.06;100.00;60892.56;5785209;23;20010;-91
2022/10/02 10:24:55;;;;;;;0.88;0.40;;;;;;;-145.06;100.00;60892.56;5848422;23;20671;-90
2022/10/02 10:27:47;;;;;;;0.55;0.40;;;;;;;-145.06;100.00;60892.56;5849363;23;20003;-90
2022/10/02 10:31:01;;;;;;;0.90;0.47;;;;;;;-145.06;100.00;60892.56;5849612;23;20003;-89
2022/10/02 10:34:04;;;;;;;1.10;0.50;;;;;;;-145.06;100.00;60892.56;5848916;23;20003;-90
2022/10/02 10:40:37;;;;;;;2.22;0.70;;;;;;;-145.06;24.23;60892.56;4905432;28;20044;-91
2022/10/02 10:43:40;;;;;;;1.73;0.47;;;;;;;-145.06;24.23;60892.56;4901768;28;20028;-90
2022/10/02 10:46:54;;;;;;;1.15;0.60;;;;;;;-145.06;24.23;60892.56;4895009;28;20616;-91
2022/10/02 10:50:01;;;;;;;0.82;0.50;;;;;;;-145.06;24.23;60892.56;4903192;28;20033;-91
2022/10/02 10:52:50;;;;;;;0.90;0.50;;;;;;;-145.06;24.23;60892.56;4896631;28;20440;-91
2022/10/02 10:55:38;;;;;;;1.58;0.45;;;;;;;-145.06;24.23;60892.56;4896903;28;20020;-91
2022/10/02 10:58:31;;;;;;;1.85;0.43;;;;;;;-145.06;24.23;60892.56;4899800;28;20040;-90
2022/10/02 11:01:17;;;;;;;0.82;0.40;;;;;;;-145.06;24.23;60892.56;4905739;28;20557;-92
2022/10/02 11:04:22;;;;;;;0.82;0.30;;;;;;;-145.06;24.23;60892.56;4905686;28;20342;-90
2022/10/02 11:07:07;;;;;;;1.00;0.60;;;;;;;-145.06;24.23;60892.56;4896557;28;20028;-90
2022/10/02 11:10:04;;;;;;;0.75;0.47;;;;;;;-145.06;24.23;60892.56;4902050;28;20028;-91
2022/10/02 11:13:11;;;;;;;0.95;0.40;;;;;;;-145.06;24.23;60892.56;4896413;28;20037;-92
2022/10/02 11:16:20;;;;;;;0.85;0.30;;;;;;;-145.06;24.23;60892.56;4902742;28;20055;-91
2022/10/02 11:19:15;;;;;;;0.80;0.40;;;;;;;-145.06;24.23;60892.56;4899309;28;20036;-90
2022/10/02 11:22:10;;;;;;;1.38;0.60;;;;;;;-145.06;24.23;60892.56;4903507;28;20041;-91
2022/10/02 11:25:10;;;;;;;2.97;0.50;;;;;;;-145.06;24.23;60892.56;4892349;28;20024;-90
2022/10/02 11:28:08;;;;;;;1.13;0.43;;;;;;;-145.06;24.23;60892.56;4906505;28;20020;-90
2022/10/02 11:31:09;;;;;;;0.93;0.50;;;;;;;-145.06;24.23;60892.56;4904050;28;20027;-91
2022/10/02 11:34:23;;;;;;;1.50;0.57;;;;;;;-145.06;24.23;60892.56;4901126;28;20032;-90
2022/10/02 11:37:24;;;;;;;0.40;0.30;;;;;;;-145.06;24.23;60892.56;4901169;28;20383;-92
2022/10/02 11:40:31;;;;;;;0.70;0.38;;;;;;;-145.06;24.23;60892.56;4897008;28;20067;-91
2022/10/02 11:43:16;;;;;;;0.60;0.40;;;;;;;-145.06;24.23;60892.56;4898510;28;20114;-90
2022/10/02 11:45:58;;;;;;;1.05;0.40;;;;;;;-145.06;24.23;60892.56;4898931;28;20036;-91
2022/10/02 11:48:46;;;;;;;1.00;0.40;;;;;;;-145.06;24.23;60892.56;4877461;28;20032;-91
2022/10/02 11:51:32;;;;;;;1.73;0.57;;;;;;;-145.06;24.23;60892.56;4892042;28;20477;-91
2022/10/02 11:54:28;;;;;;;1.55;0.50;;;;;;;-145.06;24.23;60892.56;4891103;28;20032;-91
2022/10/02 11:57:07;;;;;;;1.00;0.40;;;;;;;-145.06;24.23;60892.56;4880685;28;20029;-92
2022/10/02 12:00:13;;;;;;;2.13;0.50;;;;;;;-145.06;24.23;60892.56;4892788;28;20033;-89
2022/10/02 12:03:04;;;;;;;0.90;0.40;;;;;;;-145.06;24.23;60892.56;4888553;28;20267;-90
2022/10/02 12:06:05;;;;;;;2.00;0.60;;;;;;;-145.06;24.23;60892.56;4891571;28;20028;-91
2022/10/02 12:08:56;;;;;;;1.50;0.50;;;;;;;-145.06;24.23;60892.56;4891194;28;20346;-90
2022/10/02 12:12:31;;;;;;;0.98;0.60;;;;;;;-145.06;24.23;60892.56;4887637;28;20029;-91
2022/10/02 12:15:38;;;;;;;1.77;0.60;;;;;;;-145.06;24.23;60892.56;4882516;28;20143;-90
2022/10/02 12:18:30;;;;;;;0.88;0.50;;;;;;;-145.06;24.23;60892.56;4891686;28;20509;-92
2022/10/02 12:27:58;;;;;;;1.00;0.50;;;;;;;16.99;24.23;60892.56;4885381;28;20028;-90
2022/10/02 12:30:45;;;;;;;0.57;0.35;;;;;;;17.06;24.23;60892.56;4889030;28;20025;-91
2022/10/02 12:33:28;;;;;;;1.45;0.47;;;;;;;17.12;24.23;60892.56;4889484;28;20028;-91
2022/10/02 12:36:40;;;;;;;1.38;0.50;;;;;;;17.20;24.23;60892.56;4886186;28;20111;-91
2022/10/02 12:39:42;;;;;;;1.45;0.50;;;;;;;17.29;24.23;60892.56;4888978;28;20040;-91
2022/10/02 12:42:43;;;;;;;1.08;0.60;;;;;;;-145.06;24.23;60892.56;4898097;28;20028;-91
2022/10/02 12:45:30;;;;;;;0.88;0.40;;;;;;;-145.06;24.23;60892.56;4883281;28;20040;-93
2022/10/02 12:48:18;;;;;;;0.75;0.40;;;;;;;-145.06;24.23;60892.56;4889723;28;20040;-91
2022/10/02 12:51:15;;;;;;;1.27;0.57;;;;;;;-145.06;24.23;60892.56;4890408;28;20103;-91
2022/10/02 12:54:25;;;;;;;3.80;0.70;;;;;;;187.52;24.23;60892.56;4883383;28;20037;-91
2022/10/02 12:57:53;;;;;;;1.20;0.50;;;;;;;-145.06;24.23;60892.56;4891494;28;20036;-91
2022/10/02 13:01:09;;;;;;;1.25;0.55;;;;;;;-145.06;24.23;60892.56;4886663;28;20033;-91
2022/10/02 13:04:15;;;;;;;1.92;1.02;;;;;;;-145.06;24.23;60892.56;4901028;28;20032;-90
2022/10/02 13:07:34;;;;;;;1.80;0.82;;;;;;;-145.06;24.23;60892.56;4888067;28;20544;-91
2022/10/02 13:10:34;;;;;;;0.30;0.28;;;;;;;-145.06;24.23;60892.56;4881258;28;20036;-92
2022/10/02 13:13:41;;;;;;;1.73;0.43;;;;;;;-145.06;24.23;60892.56;4885215;28;20032;-92
2022/10/02 13:16:53;;;;;;;1.15;0.50;;;;;;;-145.06;24.23;60892.56;4887229;28;20485;-92
2022/10/02 13:20:09;;;;;;;0.60;0.40;;;;;;;-145.06;24.23;60892.56;4888547;28;20044;-92
2022/10/02 13:22:57;;;;;;;0.88;0.30;;;;;;;-145.06;24.23;60892.56;4897024;28;20037;-91
2022/10/02 13:25:41;;;;;;;1.75;0.50;;;;;;;-145.06;24.23;60892.56;4885433;28;20021;-91
2022/10/02 13:28:40;;;;;;;1.13;0.40;;;;;;;-145.06;24.23;60892.56;4888621;28;20594;-89
2022/10/02 13:31:43;;;;;;;0.73;0.45;;;;;;;-145.06;24.23;60892.56;4886868;28;20024;-91